sensor_id;sensor_type;location;lat;lon;timestamp;pressure;altitude;pressure_sealevel;temperature;humidity
5126;BME280;63008;53.112;8.896;2023-06-19T00:00:54;101019.78;;;22.21;55.63
5126;BME280;63008;53.112;8.896;2023-06-19T00:02:56;101014.56;;;22.23;55.37
5126;BME280;63008;53.112;8.896;2023-06-19T00:04:57;101020.56;;;22.18;55.48
5126;BME280;63008;53.112;8.896;2023-06-19T00:06:59;101022.56;;;22.18;55.45
5126;BME280;63008;53.112;8.896;2023-06-19T00:09:00;101019.38;;;22.16;55.69
5126;BME280;63008;53.112;8.896;2023-06-19T00:11:02;101015.78;;;22.15;55.50
5126;BME280;63008;53.112;8.896;2023-06-19T00:13:03;101021.00;;;22.13;55.71
5126;BME280;63008;53.112;8.896;2023-06-19T00:15:04;101010.63;;;22.10;55.53
5126;BME280;63008;53.112;8.896;2023-06-19T00:17:05;101014.22;;;22.11;56.17
5126;BME280;63008;53.112;8.896;2023-06-19T00:19:07;101007.00;;;22.10;55.17
5126;BME280;63008;53.112;8.896;2023-06-19T00:21:08;101009.03;;;22.06;56.40
5126;BME280;63008;53.112;8.896;2023-06-19T00:23:09;100998.66;;;22.03;55.65
5126;BME280;63008;53.112;8.896;2023-06-19T00:25:12;100991.50;;;21.95;55.85
5126;BME280;63008;53.112;8.896;2023-06-19T00:27:13;100987.91;;;21.91;56.28
5126;BME280;63008;53.112;8.896;2023-06-19T00:29:14;100990.31;;;21.92;56.19
5126;BME280;63008;53.112;8.896;2023-06-19T00:31:15;100993.09;;;21.89;55.89
5126;BME280;63008;53.112;8.896;2023-06-19T00:33:17;100991.13;;;21.86;56.22
5126;BME280;63008;53.112;8.896;2023-06-19T00:35:18;100994.72;;;21.83;56.30
5126;BME280;63008;53.112;8.896;2023-06-19T00:37:19;100986.75;;;21.78;56.25
5126;BME280;63008;53.112;8.896;2023-06-19T00:39:19;100990.72;;;21.80;56.87
5126;BME280;63008;53.112;8.896;2023-06-19T00:41:21;100995.16;;;21.78;56.13
5126;BME280;63008;53.112;8.896;2023-06-19T00:43:22;100990.38;;;21.75;56.44
5126;BME280;63008;53.112;8.896;2023-06-19T00:45:24;100993.59;;;21.63;56.95
5126;BME280;63008;53.112;8.896;2023-06-19T00:47:26;100994.38;;;21.63;56.67
5126;BME280;63008;53.112;8.896;2023-06-19T00:49:29;100984.00;;;21.64;56.89
5126;BME280;63008;53.112;8.896;2023-06-19T00:51:30;100981.59;;;21.59;56.91
5126;BME280;63008;53.112;8.896;2023-06-19T00:53:32;100985.59;;;21.68;57.78
5126;BME280;63008;53.112;8.896;2023-06-19T00:55:34;100973.59;;;21.71;56.90
5126;BME280;63008;53.112;8.896;2023-06-19T00:57:36;100977.22;;;21.65;57.72
5126;BME280;63008;53.112;8.896;2023-06-19T00:59:37;100984.78;;;21.61;57.35
5126;BME280;63008;53.112;8.896;2023-06-19T01:01:39;100981.97;;;21.57;57.11
5126;BME280;63008;53.112;8.896;2023-06-19T01:03:40;100968.78;;;21.61;56.90
5126;BME280;63008;53.112;8.896;2023-06-19T01:05:42;100968.00;;;21.54;57.01
5126;BME280;63008;53.112;8.896;2023-06-19T01:08:03;100962.81;;;21.59;57.31
5126;BME280;63008;53.112;8.896;2023-06-19T01:10:07;100954.47;;;21.45;57.45
5126;BME280;63008;53.112;8.896;2023-06-19T01:12:15;100952.09;;;21.44;57.73
5126;BME280;63008;53.112;8.896;2023-06-19T01:14:34;100947.31;;;21.34;57.99
5126;BME280;63008;53.112;8.896;2023-06-19T01:16:36;100946.50;;;21.37;58.17
5126;BME280;63008;53.112;8.896;2023-06-19T01:18:38;100955.28;;;21.28;57.76
5126;BME280;63008;53.112;8.896;2023-06-19T01:20:40;100953.31;;;21.29;58.10
5126;BME280;63008;53.112;8.896;2023-06-19T01:22:41;100950.09;;;21.30;58.29
5126;BME280;63008;53.112;8.896;2023-06-19T01:24:44;100952.09;;;21.33;57.82
5126;BME280;63008;53.112;8.896;2023-06-19T01:26:48;100938.91;;;21.34;57.99
5126;BME280;63008;53.112;8.896;2023-06-19T01:28:49;100942.53;;;21.24;58.32
5126;BME280;63008;53.112;8.896;2023-06-19T01:30:50;100938.94;;;21.20;58.09
5126;BME280;63008;53.112;8.896;2023-06-19T01:33:12;100942.94;;;21.22;58.17
5126;BME280;63008;53.112;8.896;2023-06-19T01:35:17;100948.13;;;21.17;58.33
5126;BME280;63008;53.112;8.896;2023-06-19T01:37:20;100948.94;;;21.17;58.70
5126;BME280;63008;53.112;8.896;2023-06-19T01:39:21;100955.69;;;21.23;58.40
5126;BME280;63008;53.112;8.896;2023-06-19T01:41:23;100948.50;;;21.22;58.00
5126;BME280;63008;53.112;8.896;2023-06-19T01:43:26;100949.72;;;21.18;58.44
5126;BME280;63008;53.112;8.896;2023-06-19T01:45:31;100941.75;;;21.09;58.57
5126;BME280;63008;53.112;8.896;2023-06-19T01:47:32;100934.56;;;21.15;57.97
5126;BME280;63008;53.112;8.896;2023-06-19T01:49:33;100931.38;;;21.13;57.99
5126;BME280;63008;53.112;8.896;2023-06-19T01:51:37;100933.78;;;21.08;58.46
5126;BME280;63008;53.112;8.896;2023-06-19T01:53:38;100923.00;;;21.10;58.57
5126;BME280;63008;53.112;8.896;2023-06-19T01:55:39;100924.59;;;21.11;58.84
5126;BME280;63008;53.112;8.896;2023-06-19T01:57:40;100925.00;;;21.16;58.33
5126;BME280;63008;53.112;8.896;2023-06-19T01:59:41;100919.41;;;21.02;58.27
5126;BME280;63008;53.112;8.896;2023-06-19T02:01:42;100908.66;;;21.01;58.30
5126;BME280;63008;53.112;8.896;2023-06-19T02:03:43;100905.84;;;21.04;58.11
5126;BME280;63008;53.112;8.896;2023-06-19T02:05:44;100901.47;;;21.03;58.54
5126;BME280;63008;53.112;8.896;2023-06-19T02:07:45;100901.88;;;21.02;57.97
5126;BME280;63008;53.112;8.896;2023-06-19T02:09:46;100901.47;;;21.00;58.23
5126;BME280;63008;53.112;8.896;2023-06-19T02:11:47;100905.47;;;21.02;57.71
5126;BME280;63008;53.112;8.896;2023-06-19T02:13:48;100898.69;;;21.00;57.81
5126;BME280;63008;53.112;8.896;2023-06-19T02:15:49;100891.91;;;20.90;58.07
5126;BME280;63008;53.112;8.896;2023-06-19T02:17:50;100903.09;;;20.97;58.96
5126;BME280;63008;53.112;8.896;2023-06-19T02:19:55;100907.06;;;21.03;57.51
5126;BME280;63008;53.112;8.896;2023-06-19T02:21:56;100902.25;;;21.07;57.58
5126;BME280;63008;53.112;8.896;2023-06-19T02:23:57;100900.25;;;21.15;57.77
5126;BME280;63008;53.112;8.896;2023-06-19T02:25:58;100894.28;;;21.09;57.47
5126;BME280;63008;53.112;8.896;2023-06-19T02:27:59;100893.09;;;21.07;58.30
5126;BME280;63008;53.112;8.896;2023-06-19T02:30:00;100891.09;;;20.97;58.47
5126;BME280;63008;53.112;8.896;2023-06-19T02:32:02;100896.69;;;21.07;58.37
5126;BME280;63008;53.112;8.896;2023-06-19T02:34:03;100893.09;;;21.00;58.02
5126;BME280;63008;53.112;8.896;2023-06-19T02:36:05;100894.31;;;21.02;58.15
5126;BME280;63008;53.112;8.896;2023-06-19T02:38:06;100887.94;;;20.98;58.10
5126;BME280;63008;53.112;8.896;2023-06-19T02:40:07;100899.09;;;20.98;58.03
5126;BME280;63008;53.112;8.896;2023-06-19T02:42:11;100889.13;;;20.97;57.82
5126;BME280;63008;53.112;8.896;2023-06-19T02:44:12;100891.53;;;20.95;58.27
5126;BME280;63008;53.112;8.896;2023-06-19T02:46:13;100888.31;;;20.86;58.07
5126;BME280;63008;53.112;8.896;2023-06-19T02:48:14;100881.53;;;20.87;58.35
5126;BME280;63008;53.112;8.896;2023-06-19T02:50:15;100887.53;;;20.93;57.83
5126;BME280;63008;53.112;8.896;2023-06-19T02:52:16;100875.56;;;20.96;57.33
5126;BME280;63008;53.112;8.896;2023-06-19T02:54:17;100880.72;;;21.01;57.78
5126;BME280;63008;53.112;8.896;2023-06-19T02:56:18;100875.16;;;21.04;57.14
5126;BME280;63008;53.112;8.896;2023-06-19T02:58:19;100887.91;;;21.05;56.38
5126;BME280;63008;53.112;8.896;2023-06-19T03:00:20;100879.13;;;21.10;56.25
5126;BME280;63008;53.112;8.896;2023-06-19T03:02:21;100875.97;;;21.05;56.66
5126;BME280;63008;53.112;8.896;2023-06-19T03:04:22;100877.94;;;21.08;56.13
5126;BME280;63008;53.112;8.896;2023-06-19T03:06:23;100881.13;;;21.10;56.17
5126;BME280;63008;53.112;8.896;2023-06-19T03:08:24;100876.31;;;21.10;55.36
5126;BME280;63008;53.112;8.896;2023-06-19T03:10:25;100873.53;;;21.17;56.02
5126;BME280;63008;53.112;8.896;2023-06-19T03:12:26;100881.09;;;21.24;55.26
5126;BME280;63008;53.112;8.896;2023-06-19T03:14:27;100878.72;;;21.26;55.67
5126;BME280;63008;53.112;8.896;2023-06-19T03:16:28;100882.28;;;21.30;54.83
5126;BME280;63008;53.112;8.896;2023-06-19T03:18:29;100869.91;;;21.27;54.50
5126;BME280;63008;53.112;8.896;2023-06-19T03:20:30;100869.91;;;21.34;55.42
5126;BME280;63008;53.112;8.896;2023-06-19T03:22:31;100870.31;;;21.36;54.36
5126;BME280;63008;53.112;8.896;2023-06-19T03:24:32;100866.69;;;21.39;54.31
5126;BME280;63008;53.112;8.896;2023-06-19T03:26:32;100867.09;;;21.45;54.16
5126;BME280;63008;53.112;8.896;2023-06-19T03:28:33;100863.88;;;21.46;53.83
5126;BME280;63008;53.112;8.896;2023-06-19T03:30:35;100865.06;;;21.52;53.28
5126;BME280;63008;53.112;8.896;2023-06-19T03:32:36;100871.03;;;21.47;52.68
5126;BME280;63008;53.112;8.896;2023-06-19T03:34:37;100884.63;;;21.52;51.86
5126;BME280;63008;53.112;8.896;2023-06-19T03:36:38;100887.38;;;21.56;52.35
5126;BME280;63008;53.112;8.896;2023-06-19T03:38:39;100886.19;;;21.57;53.12
5126;BME280;63008;53.112;8.896;2023-06-19T03:40:40;100884.19;;;21.61;53.33
5126;BME280;63008;53.112;8.896;2023-06-19T03:42:41;100888.19;;;21.60;53.03
5126;BME280;63008;53.112;8.896;2023-06-19T03:44:42;100893.00;;;21.63;53.77
5126;BME280;63008;53.112;8.896;2023-06-19T03:46:43;100903.34;;;21.69;53.26
5126;BME280;63008;53.112;8.896;2023-06-19T03:48:44;100913.28;;;21.74;52.96
5126;BME280;63008;53.112;8.896;2023-06-19T03:50:45;100925.63;;;21.83;51.04
5126;BME280;63008;53.112;8.896;2023-06-19T03:52:46;100911.66;;;21.90;51.18
5126;BME280;63008;53.112;8.896;2023-06-19T03:54:47;100917.63;;;21.92;51.55
5126;BME280;63008;53.112;8.896;2023-06-19T03:56:48;100900.00;;;22.02;50.29
5126;BME280;63008;53.112;8.896;2023-06-19T03:58:49;100910.78;;;22.00;50.79
5126;BME280;63008;53.112;8.896;2023-06-19T04:00:51;100903.22;;;21.97;50.58
5126;BME280;63008;53.112;8.896;2023-06-19T04:02:52;100894.38;;;22.06;50.36
5126;BME280;63008;53.112;8.896;2023-06-19T04:04:53;100889.16;;;22.11;50.07
5126;BME280;63008;53.112;8.896;2023-06-19T04:06:54;100892.34;;;22.10;51.04
5126;BME280;63008;53.112;8.896;2023-06-19T04:08:55;100894.81;;;22.04;50.80
5126;BME280;63008;53.112;8.896;2023-06-19T04:10:56;100894.81;;;22.01;52.03
5126;BME280;63008;53.112;8.896;2023-06-19T04:12:57;100888.41;;;22.00;50.46
5126;BME280;63008;53.112;8.896;2023-06-19T04:14:58;100888.84;;;22.02;50.84
5126;BME280;63008;53.112;8.896;2023-06-19T04:16:59;100898.81;;;22.03;50.80
5126;BME280;63008;53.112;8.896;2023-06-19T04:19:00;100901.16;;;22.08;50.52
5126;BME280;63008;53.112;8.896;2023-06-19T04:21:01;100899.91;;;22.16;50.30
5126;BME280;63008;53.112;8.896;2023-06-19T04:23:02;100898.38;;;22.12;50.82
5126;BME280;63008;53.112;8.896;2023-06-19T04:25:07;100896.72;;;22.14;50.79
5126;BME280;63008;53.112;8.896;2023-06-19T04:27:08;100897.94;;;22.13;50.73
5126;BME280;63008;53.112;8.896;2023-06-19T04:29:09;100898.31;;;22.15;50.84
5126;BME280;63008;53.112;8.896;2023-06-19T04:31:17;100900.75;;;22.10;51.58
5126;BME280;63008;53.112;8.896;2023-06-19T04:33:22;100904.34;;;22.10;50.88
5126;BME280;63008;53.112;8.896;2023-06-19T04:35:23;100895.19;;;22.06;51.21
5126;BME280;63008;53.112;8.896;2023-06-19T04:37:24;100901.16;;;22.12;50.93
5126;BME280;63008;53.112;8.896;2023-06-19T04:39:25;100911.53;;;22.15;51.18
5126;BME280;63008;53.112;8.896;2023-06-19T04:41:26;100902.00;;;22.05;51.93
5126;BME280;63008;53.112;8.896;2023-06-19T04:43:27;100901.56;;;22.07;52.44
5126;BME280;63008;53.112;8.896;2023-06-19T04:45:28;100906.75;;;22.08;51.75
5126;BME280;63008;53.112;8.896;2023-06-19T04:47:29;100912.28;;;22.19;51.95
5126;BME280;63008;53.112;8.896;2023-06-19T04:49:30;100912.66;;;22.24;51.86
5126;BME280;63008;53.112;8.896;2023-06-19T04:51:31;100906.25;;;22.31;51.42
5126;BME280;63008;53.112;8.896;2023-06-19T04:53:35;100905.81;;;22.35;51.38
5126;BME280;63008;53.112;8.896;2023-06-19T04:55:36;100911.44;;;22.29;52.41
5126;BME280;63008;53.112;8.896;2023-06-19T04:57:38;100904.16;;;22.45;51.69
5126;BME280;63008;53.112;8.896;2023-06-19T04:59:39;100896.59;;;22.35;51.41
5126;BME280;63008;53.112;8.896;2023-06-19T05:01:40;100902.19;;;22.45;51.29
5126;BME280;63008;53.112;8.896;2023-06-19T05:03:43;100894.22;;;22.37;51.91
5126;BME280;63008;53.112;8.896;2023-06-19T05:05:44;100906.19;;;22.37;50.85
5126;BME280;63008;53.112;8.896;2023-06-19T05:07:46;100902.19;;;22.42;51.35
5126;BME280;63008;53.112;8.896;2023-06-19T05:09:47;100908.56;;;22.42;51.83
5126;BME280;63008;53.112;8.896;2023-06-19T05:11:48;100900.59;;;22.34;51.68
5126;BME280;63008;53.112;8.896;2023-06-19T05:13:49;100900.28;;;22.25;52.14
5126;BME280;63008;53.112;8.896;2023-06-19T05:15:50;100903.06;;;22.29;51.72
5126;BME280;63008;53.112;8.896;2023-06-19T05:17:54;100907.84;;;22.28;52.64
5126;BME280;63008;53.112;8.896;2023-06-19T05:19:55;100911.84;;;22.27;52.21
5126;BME280;63008;53.112;8.896;2023-06-19T05:21:56;100913.00;;;22.33;52.46
5126;BME280;63008;53.112;8.896;2023-06-19T05:23:57;100912.63;;;22.38;52.68
5126;BME280;63008;53.112;8.896;2023-06-19T05:25:57;100916.47;;;22.58;50.99
5126;BME280;63008;53.112;8.896;2023-06-19T05:27:58;100916.09;;;22.56;51.36
5126;BME280;63008;53.112;8.896;2023-06-19T05:29:59;100910.91;;;22.51;51.44
5126;BME280;63008;53.112;8.896;2023-06-19T05:32:00;100909.72;;;22.52;51.29
5126;BME280;63008;53.112;8.896;2023-06-19T05:34:01;100910.06;;;22.57;51.47
5126;BME280;63008;53.112;8.896;2023-06-19T05:36:03;100912.13;;;22.50;51.99
5126;BME280;63008;53.112;8.896;2023-06-19T05:38:03;100911.72;;;22.55;51.40
5126;BME280;63008;53.112;8.896;2023-06-19T05:40:06;100905.25;;;22.61;51.48
5126;BME280;63008;53.112;8.896;2023-06-19T05:42:08;100901.97;;;22.70;51.50
5126;BME280;63008;53.112;8.896;2023-06-19T05:44:08;100913.22;;;22.63;52.75
5126;BME280;63008;53.112;8.896;2023-06-19T05:46:10;100912.84;;;22.61;51.35
5126;BME280;63008;53.112;8.896;2023-06-19T05:48:12;100913.63;;;22.65;52.65
5126;BME280;63008;53.112;8.896;2023-06-19T05:50:13;100917.91;;;22.80;51.72
5126;BME280;63008;53.112;8.896;2023-06-19T05:52:14;100917.84;;;22.87;51.29
5126;BME280;63008;53.112;8.896;2023-06-19T05:54:15;100928.66;;;22.85;51.42
5126;BME280;63008;53.112;8.896;2023-06-19T05:56:18;100932.63;;;22.87;50.66
5126;BME280;63008;53.112;8.896;2023-06-19T05:58:19;100927.34;;;22.96;50.72
5126;BME280;63008;53.112;8.896;2023-06-19T06:00:22;100925.38;;;22.93;51.36
5126;BME280;63008;53.112;8.896;2023-06-19T06:02:23;100927.34;;;22.96;51.67
5126;BME280;63008;53.112;8.896;2023-06-19T06:04:24;100924.16;;;22.98;50.78
5126;BME280;63008;53.112;8.896;2023-06-19T06:06:25;100932.56;;;22.94;50.60
5126;BME280;63008;53.112;8.896;2023-06-19T06:08:26;100932.19;;;22.96;50.83
5126;BME280;63008;53.112;8.896;2023-06-19T06:10:27;100936.91;;;23.02;50.93
5126;BME280;63008;53.112;8.896;2023-06-19T06:12:28;100942.47;;;23.06;51.26
5126;BME280;63008;53.112;8.896;2023-06-19T06:14:29;100934.13;;;23.02;51.11
5126;BME280;63008;53.112;8.896;2023-06-19T06:16:30;100942.47;;;23.06;51.18
5126;BME280;63008;53.112;8.896;2023-06-19T06:18:31;100944.84;;;23.11;50.25
5126;BME280;63008;53.112;8.896;2023-06-19T06:20:32;100935.63;;;23.10;51.46
5126;BME280;63008;53.112;8.896;2023-06-19T06:22:33;100951.69;;;23.06;51.51
5126;BME280;63008;53.112;8.896;2023-06-19T06:24:34;100947.28;;;23.09;51.13
5126;BME280;63008;53.112;8.896;2023-06-19T06:26:34;100956.84;;;23.15;51.07
5126;BME280;63008;53.112;8.896;2023-06-19T06:28:36;100947.47;;;23.32;50.58
5126;BME280;63008;53.112;8.896;2023-06-19T06:30:38;100951.03;;;23.36;50.28
5126;BME280;63008;53.112;8.896;2023-06-19T06:32:42;100956.63;;;23.39;50.63
5126;BME280;63008;53.112;8.896;2023-06-19T06:34:44;100954.16;;;23.45;50.62
5126;BME280;63008;53.112;8.896;2023-06-19T06:36:45;100957.28;;;23.50;50.46
5126;BME280;63008;53.112;8.896;2023-06-19T06:38:46;100953.25;;;23.55;50.30
5126;BME280;63008;53.112;8.896;2023-06-19T06:40:47;100954.72;;;23.66;50.23
5126;BME280;63008;53.112;8.896;2023-06-19T06:42:48;100959.81;;;23.75;49.83
5126;BME280;63008;53.112;8.896;2023-06-19T06:44:50;100964.56;;;23.81;49.34
5126;BME280;63008;53.112;8.896;2023-06-19T06:46:51;100960.44;;;23.93;49.42
5126;BME280;63008;53.112;8.896;2023-06-19T06:48:52;100969.19;;;23.98;49.74
5126;BME280;63008;53.112;8.896;2023-06-19T06:50:52;100971.81;;;24.16;49.56
5126;BME280;63008;53.112;8.896;2023-06-19T06:53:01;100972.91;;;24.22;50.05
5126;BME280;63008;53.112;8.896;2023-06-19T06:55:03;100975.25;;;24.27;48.36
5126;BME280;63008;53.112;8.896;2023-06-19T06:57:04;100977.72;;;24.21;48.88
5126;BME280;63008;53.112;8.896;2023-06-19T06:59:06;100978.81;;;24.31;48.74
5126;BME280;63008;53.112;8.896;2023-06-19T07:01:07;100975.88;;;24.41;48.95
5126;BME280;63008;53.112;8.896;2023-06-19T07:03:07;100975.44;;;24.42;49.26
5126;BME280;63008;53.112;8.896;2023-06-19T07:05:09;100978.94;;;24.50;50.21
5126;BME280;63008;53.112;8.896;2023-06-19T07:07:10;100985.41;;;24.47;48.78
5126;BME280;63008;53.112;8.896;2023-06-19T07:09:11;100979.34;;;24.52;48.33
5126;BME280;63008;53.112;8.896;2023-06-19T07:11:12;100981.38;;;24.48;48.33
5126;BME280;63008;53.112;8.896;2023-06-19T07:13:13;100982.97;;;24.52;48.66
5126;BME280;63008;53.112;8.896;2023-06-19T07:15:15;100989.13;;;24.70;49.16
5126;BME280;63008;53.112;8.896;2023-06-19T07:17:16;100988.50;;;24.82;48.04
5126;BME280;63008;53.112;8.896;2023-06-19T07:19:17;100988.50;;;24.82;48.33
5126;BME280;63008;53.112;8.896;2023-06-19T07:21:18;100983.66;;;24.60;48.51
5126;BME280;63008;53.112;8.896;2023-06-19T07:23:19;100993.34;;;24.55;48.89
5126;BME280;63008;53.112;8.896;2023-06-19T07:25:20;101001.84;;;24.48;49.17
5126;BME280;63008;53.112;8.896;2023-06-19T07:27:21;100993.13;;;24.39;49.67
5126;BME280;63008;53.112;8.896;2023-06-19T07:29:22;100993.00;;;24.46;49.83
5126;BME280;63008;53.112;8.896;2023-06-19T07:31:23;100988.94;;;24.54;49.57
5126;BME280;63008;53.112;8.896;2023-06-19T07:33:24;100988.47;;;24.59;49.61
5126;BME280;63008;53.112;8.896;2023-06-19T07:35:25;100978.44;;;24.58;49.62
5126;BME280;63008;53.112;8.896;2023-06-19T07:37:26;100984.72;;;24.69;49.63
5126;BME280;63008;53.112;8.896;2023-06-19T07:39:27;100979.31;;;24.82;49.36
5126;BME280;63008;53.112;8.896;2023-06-19T07:41:28;100983.47;;;24.97;49.67
5126;BME280;63008;53.112;8.896;2023-06-19T07:43:29;100982.41;;;25.14;48.75
5126;BME280;63008;53.112;8.896;2023-06-19T07:45:30;100986.00;;;25.14;48.91
5126;BME280;63008;53.112;8.896;2023-06-19T07:47:31;100981.16;;;25.41;48.96
5126;BME280;63008;53.112;8.896;2023-06-19T07:49:32;100986.44;;;25.59;48.48
5126;BME280;63008;53.112;8.896;2023-06-19T07:51:36;100979.69;;;25.76;48.70
5126;BME280;63008;53.112;8.896;2023-06-19T07:53:37;100978.03;;;25.78;48.56
5126;BME280;63008;53.112;8.896;2023-06-19T07:55:40;100982.63;;;25.92;48.50
5126;BME280;63008;53.112;8.896;2023-06-19T07:57:41;100975.06;;;26.08;48.15
5126;BME280;63008;53.112;8.896;2023-06-19T07:59:42;100972.75;;;26.23;48.03
5126;BME280;63008;53.112;8.896;2023-06-19T08:01:45;100985.00;;;26.32;47.78
5126;BME280;63008;53.112;8.896;2023-06-19T08:03:46;100985.66;;;26.39;48.05
5126;BME280;63008;53.112;8.896;2023-06-19T08:05:47;100978.72;;;26.44;48.16
5126;BME280;63008;53.112;8.896;2023-06-19T08:07:48;100971.03;;;26.64;48.30
5126;BME280;63008;53.112;8.896;2023-06-19T08:09:49;100980.28;;;26.45;48.03
5126;BME280;63008;53.112;8.896;2023-06-19T08:11:50;100970.94;;;26.51;47.99
5126;BME280;63008;53.112;8.896;2023-06-19T08:13:51;100967.09;;;26.42;48.02
5126;BME280;63008;53.112;8.896;2023-06-19T08:15:52;100977.63;;;26.57;48.16
5126;BME280;63008;53.112;8.896;2023-06-19T08:17:53;100978.63;;;26.67;48.27
5126;BME280;63008;53.112;8.896;2023-06-19T08:19:54;100981.44;;;26.67;48.33
5126;BME280;63008;53.112;8.896;2023-06-19T08:21:55;100978.25;;;26.65;47.74
5126;BME280;63008;53.112;8.896;2023-06-19T08:23:56;100984.25;;;26.67;47.36
5126;BME280;63008;53.112;8.896;2023-06-19T08:25:57;100989.06;;;26.66;47.32
5126;BME280;63008;53.112;8.896;2023-06-19T08:27:57;100974.88;;;26.54;47.45
5126;BME280;63008;53.112;8.896;2023-06-19T08:29:58;100990.25;;;26.49;48.16
5126;BME280;63008;53.112;8.896;2023-06-19T08:31:59;100993.75;;;26.73;47.87
5126;BME280;63008;53.112;8.896;2023-06-19T08:34:02;100986.34;;;26.63;48.03
5126;BME280;63008;53.112;8.896;2023-06-19T08:36:07;100995.00;;;26.72;47.88
5126;BME280;63008;53.112;8.896;2023-06-19T08:38:08;100997.56;;;26.82;47.91
5126;BME280;63008;53.112;8.896;2023-06-19T08:40:09;100995.94;;;26.65;47.93
5126;BME280;63008;53.112;8.896;2023-06-19T08:42:10;101002.63;;;26.55;48.62
5126;BME280;63008;53.112;8.896;2023-06-19T08:44:11;100990.84;;;26.60;48.60
5126;BME280;63008;53.112;8.896;2023-06-19T08:46:16;101002.03;;;26.64;48.60
5126;BME280;63008;53.112;8.896;2023-06-19T08:48:20;101001.25;;;26.79;48.10
5126;BME280;63008;53.112;8.896;2023-06-19T08:50:21;101002.16;;;26.92;48.44
5126;BME280;63008;53.112;8.896;2023-06-19T08:52:22;101008.06;;;26.98;47.97
5126;BME280;63008;53.112;8.896;2023-06-19T08:54:23;101004.53;;;26.94;48.14
5126;BME280;63008;53.112;8.896;2023-06-19T08:56:25;101004.38;;;27.01;47.92
5126;BME280;63008;53.112;8.896;2023-06-19T08:58:26;101007.25;;;26.81;48.49
5126;BME280;63008;53.112;8.896;2023-06-19T09:00:29;101002.41;;;26.82;48.55
5126;BME280;63008;53.112;8.896;2023-06-19T09:02:40;101005.84;;;26.73;48.86
5126;BME280;63008;53.112;8.896;2023-06-19T09:04:42;101010.25;;;26.90;48.51
5126;BME280;63008;53.112;8.896;2023-06-19T09:06:54;101002.56;;;27.10;48.21
5126;BME280;63008;53.112;8.896;2023-06-19T09:09:01;101000.53;;;27.27;48.14
5126;BME280;63008;53.112;8.896;2023-06-19T09:11:04;101010.19;;;27.58;47.84
5126;BME280;63008;53.112;8.896;2023-06-19T09:13:05;101013.09;;;27.70;46.82
5126;BME280;63008;53.112;8.896;2023-06-19T09:15:14;101007.72;;;27.76;47.05
5126;BME280;63008;53.112;8.896;2023-06-19T09:17:19;101011.78;;;28.03;46.49
5126;BME280;63008;53.112;8.896;2023-06-19T09:19:21;101020.44;;;28.12;46.26
5126;BME280;63008;53.112;8.896;2023-06-19T09:21:22;101019.91;;;28.29;45.30
5126;BME280;63008;53.112;8.896;2023-06-19T09:23:24;101019.91;;;28.01;45.63
5126;BME280;63008;53.112;8.896;2023-06-19T09:25:25;101021.81;;;27.92;46.12
5126;BME280;63008;53.112;8.896;2023-06-19T09:27:32;101020.44;;;28.12;46.14
5126;BME280;63008;53.112;8.896;2023-06-19T09:29:36;101014.22;;;28.17;45.98
5126;BME280;63008;53.112;8.896;2023-06-19T09:31:38;101018.03;;;28.11;45.91
5126;BME280;63008;53.112;8.896;2023-06-19T09:33:42;101020.34;;;28.00;46.13
5126;BME280;63008;53.112;8.896;2023-06-19T09:35:42;101020.09;;;28.10;45.79
5126;BME280;63008;53.112;8.896;2023-06-19T09:37:44;101017.13;;;27.69;46.21
5126;BME280;63008;53.112;8.896;2023-06-19T09:39:46;101009.91;;;27.84;46.24
5126;BME280;63008;53.112;8.896;2023-06-19T09:41:50;101013.22;;;28.24;44.75
5126;BME280;63008;53.112;8.896;2023-06-19T09:43:55;101023.50;;;28.58;44.13
5126;BME280;63008;53.112;8.896;2023-06-19T09:46:02;101015.47;;;28.69;43.67
5126;BME280;63008;53.112;8.896;2023-06-19T09:48:04;101025.59;;;29.33;43.17
5126;BME280;63008;53.112;8.896;2023-06-19T09:50:06;101024.59;;;29.02;42.90
5126;BME280;63008;53.112;8.896;2023-06-19T09:52:07;101024.16;;;28.38;44.87
5126;BME280;63008;53.112;8.896;2023-06-19T09:54:09;101024.50;;;28.11;45.54
5126;BME280;63008;53.112;8.896;2023-06-19T09:56:14;101011.88;;;28.56;45.11
5126;BME280;63008;53.112;8.896;2023-06-19T09:58:20;101023.41;;;29.62;43.75
5126;BME280;63008;53.112;8.896;2023-06-19T10:00:21;101018.06;;;30.83;40.46
5126;BME280;63008;53.112;8.896;2023-06-19T10:02:27;101021.94;;;31.56;39.21
5126;BME280;63008;53.112;8.896;2023-06-19T10:04:28;101031.00;;;30.63;39.69
5126;BME280;63008;53.112;8.896;2023-06-19T10:06:29;101035.69;;;30.35;40.40
5126;BME280;63008;53.112;8.896;2023-06-19T10:08:38;101029.81;;;30.73;39.22
5126;BME280;63008;53.112;8.896;2023-06-19T10:10:48;101032.41;;;30.89;38.84
5126;BME280;63008;53.112;8.896;2023-06-19T10:12:49;101038.94;;;31.47;38.24
5126;BME280;63008;53.112;8.896;2023-06-19T10:14:50;101046.59;;;31.68;37.16
5126;BME280;63008;53.112;8.896;2023-06-19T10:16:51;101041.53;;;31.14;38.27
5126;BME280;63008;53.112;8.896;2023-06-19T10:18:52;101040.41;;;31.60;38.25
5126;BME280;63008;53.112;8.896;2023-06-19T10:20:54;101040.31;;;30.63;39.53
5126;BME280;63008;53.112;8.896;2023-06-19T10:25:20;101050.06;;;28.61;43.71
5126;BME280;63008;53.112;8.896;2023-06-19T10:27:21;101045.28;;;28.45;44.14
5126;BME280;63008;53.112;8.896;2023-06-19T10:29:23;101048.34;;;28.23;44.87
5126;BME280;63008;53.112;8.896;2023-06-19T10:31:24;101048.66;;;28.12;45.18
5126;BME280;63008;53.112;8.896;2023-06-19T10:33:29;101048.25;;;27.98;45.95
5126;BME280;63008;53.112;8.896;2023-06-19T10:35:38;101058.84;;;27.94;45.71
5126;BME280;63008;53.112;8.896;2023-06-19T10:37:40;101066.00;;;27.82;46.30
5126;BME280;63008;53.112;8.896;2023-06-19T10:39:42;101065.94;;;27.54;47.63
5126;BME280;63008;53.112;8.896;2023-06-19T10:41:43;101062.94;;;27.77;47.71
5126;BME280;63008;53.112;8.896;2023-06-19T10:44:07;101057.78;;;28.04;47.60
5126;BME280;63008;53.112;8.896;2023-06-19T10:46:13;101072.31;;;28.59;46.11
5126;BME280;63008;53.112;8.896;2023-06-19T10:48:19;101067.84;;;28.86;44.95